Crater Lake Natl Park, Oregon
Current Conditions -  °F | °C
As of 10:53 PM on Wednesday 22 Oct 2014 (Local Time) from KMFR Reporting Station
Clear Clear  
Wind Chill: 18°   Ceiling: Unl
Heat Index: 18°   Visibility: 10mi
Dew Point:   Wind: 0mph
Humidity: 58%   Direction: NA
Pressure: 29.84"   Gusts: NA
Location:  42.82°N, 122.13°W
Report Text: KMFR 230553Z AUTO 00000KT 10SM CLR 18/09 A2984 RMK AO2 SLP100 60002 T01780094 10200 20156 56006
Loading
Personal Weather Stations






























Interactive Weather Map
Tropical Storm Tracking
New forecast layout! Learn more

10-Day Weather Forecast

Advertisements
Track Severe Weather on mobile